Terminal Aerodrome Forecast
Issued by NWS

Home | Current Version | Previous Version | Text Only | Print | Product List | Glossary On
Versions: 1 2 3 4 5 6 7 8 9 10 11 12 13 14 15 16 17 18 19 20 21 22 23 24 25 26 27 28 29 30 31 32 33 34 35 36 37 38 39 40 41 42 43
000
FTUS46 KPQR 200239 AAA
TAFONP
TAF AMD
KONP 200239Z 2003/2024 15005KT P6SM -SHRA FEW030 SCT060
     FM200800 19018G25KT 4SM -RA BR SCT008 BKN015 OVC030
     FM201200 19020G30KT 2SM -RA BR BKN008 OVC015=

USA.gov is the U.S. government's official web portal to all federal, state and local government web resources and services.